Current Weather

Sulphur Springs Muni

Sulphur Springs, Texas (KSLR)

Report from: Friday, April 19, 2024 3:55 AM CDT
Current time: Friday, April 19, 2024 4:15 AM CDT

Nearby weather – Weather history – Daily summaries
Weather forecast

Temperature15.6°C (60.1°F)
Dew point12.5°C (54.5°F)
Winds 11 kts (5.7 m/s, 12.7 mph) North-Northwest (340°)
Visibility10 mi. (16.1 km)
Clouds Ceiling: Overcast 2,600 ft. (792 m)
Altimeter30.05 in.Hg (1018 mB)
Relative humidity82 %
Density altitude126 ft. (38 m)
Remarks Fully automated report
Automated weather observing station with precipitation discriminator
Flight conditions Marginal Visual Meteorological Conditions
Raw dataKSLR 190855Z AUTO 34011KT 10SM OVC026 16/13 A3005 RMK AO2 T01560125
An error has occurred. This application may no longer respond until reloaded. Reload 🗙